Time;durP1;ratioP1;P1;durP2;ratioP2;P2;SDS_P1;SDS_P2;PMS_P1;PMS_P2;Temp;Humidity;BMP_temperature;BMP_pressure;BME280_temperature;BME280_humidity;BME280_pressure;Samples;Min_cycle;Max_cycle;Signal;HPM_P1;HPM_P2
2021/12/13 00:01:36;;;;;;;22.97;8.40;;;0.20;99.90;;;-2.03;82.25;100624.44;10374748;28;96675;-81
2021/12/13 00:07:01;;;;;;;17.53;6.63;;;0.20;99.90;;;-2.06;82.28;100624.59;10359315;28;96558;-81
2021/12/13 00:12:06;;;;;;;11.97;5.63;;;0.10;99.90;;;-2.04;82.52;100625.38;10396570;28;96752;-81
2021/12/13 00:17:43;;;;;;;11.73;5.53;;;0.00;99.90;;;-2.02;82.07;100609.66;10391596;28;98306;-80
2021/12/13 00:22:51;;;;;;;14.03;5.97;;;0.10;99.90;;;-2.01;81.89;100617.38;10384444;28;96619;-80
2021/12/13 00:28:13;;;;;;;12.97;5.20;;;0.10;99.90;;;-1.98;81.82;100604.22;10398795;28;96609;-80
2021/12/13 00:33:46;;;;;;;12.70;5.20;;;0.10;99.90;;;-1.91;81.74;100602.16;10395597;28;97171;-80
2021/12/13 00:38:57;;;;;;;10.13;4.78;;;0.10;99.90;;;-1.86;81.26;100596.69;10385750;28;96611;-80
2021/12/13 00:44:07;;;;;;;7.50;3.70;;;0.20;99.90;;;-1.80;81.41;100614.59;10369523;28;96561;-81
2021/12/13 00:49:14;;;;;;;11.50;4.90;;;0.30;99.90;;;-1.76;80.71;100608.31;10409119;27;96637;-80
2021/12/13 00:54:26;;;;;;;9.10;4.43;;;0.30;99.90;;;-1.78;80.90;100623.19;10390311;28;97443;-80
2021/12/13 00:59:42;;;;;;;11.50;5.17;;;0.30;99.90;;;-1.80;80.70;100632.84;10388956;28;96421;-80
2021/12/13 01:05:17;;;;;;;14.63;5.83;;;0.30;99.90;;;-1.84;80.43;100629.56;10363115;28;96815;-80
2021/12/13 01:10:52;;;;;;;13.57;6.53;;;0.30;99.90;;;-1.85;80.80;100635.69;10383615;28;96682;-80
2021/12/13 01:16:23;;;;;;;12.90;6.03;;;0.30;99.90;;;-1.86;80.57;100646.16;10356008;28;96611;-80
2021/12/13 01:21:57;;;;;;;11.83;5.70;;;0.20;99.90;;;-1.91;81.04;100644.66;10358058;28;96599;-80
2021/12/13 01:27:00;;;;;;;9.70;5.30;;;0.20;99.90;;;-1.89;81.26;100650.63;10348395;28;96595;-80
2021/12/13 01:32:08;;;;;;;8.23;4.43;;;0.20;99.90;;;-1.83;80.98;100651.25;10322915;28;97038;-80
2021/12/13 01:37:16;;;;;;;13.60;5.00;;;0.30;99.90;;;-1.84;81.50;100639.97;10341821;28;96601;-80
2021/12/13 01:42:25;;;;;;;10.97;4.53;;;0.30;99.90;;;-1.94;81.23;100655.22;10343058;28;96583;-80
2021/12/13 01:47:43;;;;;;;10.93;4.47;;;0.30;99.90;;;-2.05;82.00;100652.31;10338233;28;96579;-80
2021/12/13 01:52:52;;;;;;;9.73;5.40;;;0.20;99.90;;;-2.17;82.46;100650.31;10332312;28;96747;-79
2021/12/13 02:03:55;;;;;;;24.43;8.33;;;-0.10;99.90;;;-2.38;83.43;100648.78;10357236;28;97398;-79
2021/12/13 02:09:05;;;;;;;43.97;15.43;;;-0.20;99.90;;;-2.46;83.71;100659.53;10358286;28;96514;-79
2021/12/13 02:14:27;;;;;;;20.37;7.53;;;-0.30;99.90;;;-2.52;84.36;100667.63;10380107;28;98353;-79
2021/12/13 02:19:54;;;;;;;10.63;5.32;;;-0.40;99.90;;;-2.57;84.49;100665.28;10339942;28;98119;-79
2021/12/13 02:25:10;;;;;;;8.90;5.13;;;-0.40;99.90;;;-2.60;85.02;100660.22;10347209;28;98358;-79
2021/12/13 02:30:32;;;;;;;12.37;5.90;;;-0.50;99.90;;;-2.53;84.64;100659.00;10325821;28;97077;-80
2021/12/13 02:35:42;;;;;;;10.73;5.67;;;-0.40;99.90;;;-2.44;84.37;100668.97;10338257;28;96364;-79
2021/12/13 02:40:46;;;;;;;13.43;5.50;;;-0.30;99.90;;;-2.33;83.59;100668.47;10319263;28;96635;-80
2021/12/13 02:45:55;;;;;;;12.57;6.07;;;-0.30;99.90;;;-2.25;83.46;100668.09;10331673;28;96534;-79
2021/12/13 02:51:30;;;;;;;12.10;5.43;;;-0.20;99.90;;;-2.20;83.16;100672.16;10296810;28;96528;-80
2021/12/13 02:56:44;;;;;;;15.13;6.87;;;-0.10;99.90;;;-2.21;82.75;100669.63;10360361;28;96475;-79
2021/12/13 03:02:14;;;;;;;12.37;6.33;;;0.00;99.90;;;-2.24;82.69;100662.78;10348095;28;97938;-79
2021/12/13 03:07:31;;;;;;;14.87;6.57;;;0.00;99.90;;;-2.25;82.97;100668.09;10334161;28;96784;-80
2021/12/13 03:12:34;;;;;;;13.40;6.60;;;-0.10;99.90;;;-2.30;82.58;100657.88;10336714;28;96613;-79
2021/12/13 03:17:49;;;;;;;12.13;5.83;;;-0.10;99.90;;;-2.34;82.71;100650.28;10338028;28;96633;-79
2021/12/13 03:23:10;;;;;;;11.67;6.07;;;-0.20;99.90;;;-2.39;82.65;100657.50;10328829;28;96592;-79
2021/12/13 03:28:51;;;;;;;12.23;5.13;;;-0.20;99.90;;;-2.45;82.99;100656.88;10399299;28;96550;-79
2021/12/13 03:33:59;;;;;;;12.93;5.80;;;-0.20;99.90;;;-2.51;83.44;100670.19;10388702;28;96566;-79
2021/12/13 03:39:06;;;;;;;12.20;6.27;;;-0.30;99.90;;;-2.56;83.50;100672.16;10387594;28;96578;-79
2021/12/13 03:44:15;;;;;;;12.23;5.87;;;-0.30;99.90;;;-2.63;83.98;100664.72;10401991;28;96472;-79
2021/12/13 03:49:19;;;;;;;13.50;6.83;;;-0.40;99.90;;;-2.69;84.01;100660.66;10389453;28;96604;-79
2021/12/13 03:54:28;;;;;;;11.40;6.03;;;-0.40;99.90;;;-2.74;84.18;100673.03;10394827;28;97585;-78
2021/12/13 03:59:34;;;;;;;14.50;6.47;;;-0.50;99.90;;;-2.76;84.46;100691.31;10382547;28;96601;-78
2021/12/13 04:04:52;;;;;;;13.33;6.23;;;-0.50;99.90;;;-2.80;84.56;100700.16;10381204;28;97478;-78
2021/12/13 04:09:59;;;;;;;13.87;6.07;;;-0.50;99.90;;;-2.84;84.79;100687.38;10388304;28;96488;-78
2021/12/13 04:15:48;;;;;;;14.87;6.47;;;-0.50;99.90;;;-2.86;85.25;100686.63;10380613;28;97748;-78
2021/12/13 04:21:02;;;;;;;14.43;7.53;;;-0.60;99.90;;;-2.89;85.18;100692.78;10387823;28;96631;-78
2021/12/13 04:26:10;;;;;;;11.97;6.47;;;-0.60;99.90;;;-2.92;85.22;100700.75;10369395;28;96901;-79
2021/12/13 04:31:23;;;;;;;18.00;7.43;;;-0.60;99.90;;;-2.99;85.48;100694.13;10385774;28;98105;-78
2021/12/13 04:36:38;;;;;;;13.87;7.07;;;-0.60;99.90;;;-3.07;85.81;100684.06;10383679;28;96485;-78
2021/12/13 04:41:56;;;;;;;16.83;7.53;;;-0.70;99.90;;;-3.15;86.07;100699.16;10396160;28;96591;-78
2021/12/13 04:47:12;;;;;;;15.57;7.40;;;-0.70;99.90;;;-3.21;86.45;100698.59;10384080;28;96642;-79
2021/12/13 04:52:20;;;;;;;16.97;8.03;;;-0.80;99.90;;;-3.28;86.50;100704.06;10406940;28;96695;-77
2021/12/13 04:57:23;;;;;;;16.73;8.33;;;-0.80;99.90;;;-3.35;86.80;100713.06;10392280;28;96578;-77
2021/12/13 05:02:28;;;;;;;20.03;8.10;;;-0.90;99.90;;;-3.45;86.79;100710.91;10394341;28;96514;-78
2021/12/13 05:07:35;;;;;;;19.50;8.90;;;-1.00;99.90;;;-3.55;87.07;100724.28;10396024;28;97489;-78
2021/12/13 05:12:39;;;;;;;22.07;8.67;;;-1.00;99.90;;;-3.67;87.21;100729.16;10392368;28;96644;-78
2021/12/13 05:17:45;;;;;;;19.47;8.47;;;-1.10;99.90;;;-3.79;87.55;100752.13;10399148;28;96596;-78
2021/12/13 05:22:58;;;;;;;19.50;9.73;;;-1.20;99.90;;;-3.89;87.68;100763.00;10396023;28;96976;-78
2021/12/13 05:28:14;;;;;;;25.97;10.20;;;-1.30;99.90;;;-3.98;87.93;100774.56;10400694;27;98498;-79
2021/12/13 05:33:19;;;;;;;22.53;8.97;;;-1.40;99.90;;;-4.08;88.18;100779.31;10407717;27;97020;-76
2021/12/13 05:38:35;;;;;;;22.93;9.97;;;-1.50;99.90;;;-4.17;88.26;100781.41;10390323;28;97803;-76
2021/12/13 05:43:50;;;;;;;21.67;9.37;;;-1.60;99.90;;;-4.29;88.95;100780.13;10405982;28;96695;-76
2021/12/13 05:49:00;;;;;;;25.30;10.90;;;-1.70;99.90;;;-4.39;88.87;100771.00;10386215;28;96590;-76
2021/12/13 05:54:25;;;;;;;27.33;11.63;;;-1.70;99.90;;;-4.45;89.15;100771.25;10373073;28;96570;-76
2021/12/13 05:59:33;;;;;;;27.57;12.30;;;-1.80;99.90;;;-4.51;89.68;100780.09;10365109;28;96521;-79
2021/12/13 06:04:55;;;;;;;37.27;16.93;;;-1.90;99.90;;;-4.56;89.68;100787.19;10382336;28;96707;-77
2021/12/13 06:10:13;;;;;;;30.20;14.17;;;-1.90;99.90;;;-4.63;89.96;100790.94;10392914;28;98885;-75
2021/12/13 06:15:15;;;;;;;33.60;14.63;;;-2.00;99.90;;;-4.69;90.35;100801.53;10417153;28;96593;-75
2021/12/13 06:20:27;;;;;;;27.93;13.93;;;-2.10;99.90;;;-4.73;90.41;100803.41;10417323;27;96769;-75
2021/12/13 06:25:30;;;;;;;34.90;15.13;;;-2.10;99.90;;;-4.73;90.73;100811.19;10407191;28;96817;-75
2021/12/13 06:30:38;;;;;;;36.97;16.07;;;-2.10;99.90;;;-4.72;91.15;100807.69;10387446;28;96688;-75
2021/12/13 06:36:03;;;;;;;34.67;14.40;;;-2.20;99.90;;;-4.72;91.50;100810.28;10390988;28;96547;-75
2021/12/13 06:41:17;;;;;;;40.33;16.93;;;-2.20;99.90;;;-4.71;91.81;100806.78;10378315;28;96403;-75
2021/12/13 06:46:23;;;;;;;44.00;18.47;;;-2.10;99.90;;;-4.70;91.66;100818.84;10377727;28;96588;-75
2021/12/13 06:52:03;;;;;;;35.27;15.10;;;-2.20;99.90;;;-4.68;92.01;100817.06;10396522;28;96851;-75
2021/12/13 06:57:22;;;;;;;35.37;15.53;;;-2.20;99.90;;;-4.49;92.33;100809.44;10414989;27;96482;-75
2021/12/13 07:02:26;;;;;;;43.33;19.90;;;-2.10;99.90;;;-4.26;92.42;100805.94;10426038;27;96440;-75
2021/12/13 07:07:49;;;;;;;43.50;19.00;;;-2.00;99.90;;;-4.17;92.44;100800.41;10385776;27;96455;-75
2021/12/13 07:12:58;;;;;;;36.90;17.10;;;-1.90;99.90;;;-4.08;92.73;100809.59;10378194;28;97195;-76
2021/12/13 07:18:15;;;;;;;35.67;17.77;;;-1.80;99.90;;;-3.95;92.85;100809.97;10372355;28;96673;-77
2021/12/13 07:23:19;;;;;;;34.47;15.37;;;-1.60;99.90;;;-3.82;93.01;100812.00;10396993;28;96622;-76
2021/12/13 07:28:37;;;;;;;36.50;16.23;;;-1.50;99.90;;;-3.39;93.49;100832.78;10394975;28;96791;-76
2021/12/13 07:33:44;;;;;;;52.57;20.67;;;-1.30;99.90;;;-2.72;93.30;100827.28;10396552;28;96567;-77
2021/12/13 07:39:15;;;;;;;56.40;24.93;;;-0.90;99.90;;;-2.07;93.02;100833.00;10375141;28;97611;-77
2021/12/13 07:44:33;;;;;;;40.47;19.43;;;-0.50;99.90;;;-1.59;91.90;100848.06;10394222;28;98346;-77
2021/12/13 07:49:43;;;;;;;37.60;18.70;;;-0.10;99.90;;;-1.11;91.13;100854.38;10406281;27;96544;-77
2021/12/13 07:54:46;;;;;;;33.80;18.20;;;0.30;99.90;;;-0.69;89.12;100853.09;10394556;28;96580;-77
2021/12/13 07:59:50;;;;;;;33.93;16.17;;;0.60;99.90;;;-0.33;88.24;100858.13;10400075;28;96495;-77
2021/12/13 08:05:23;;;;;;;30.40;15.70;;;1.00;99.90;;;0.04;86.89;100843.06;10391275;28;96516;-77
2021/12/13 08:10:38;;;;;;;33.00;14.73;;;1.30;99.90;;;0.25;84.93;100850.56;10382357;28;96629;-77
2021/12/13 08:15:55;;;;;;;36.70;17.13;;;1.70;99.90;;;0.47;84.38;100854.56;10386574;28;96778;-77
2021/12/13 08:21:25;;;;;;;35.23;18.13;;;2.10;99.90;;;0.79;82.97;100856.19;10389474;28;96584;-77
2021/12/13 08:26:41;;;;;;;37.67;19.03;;;2.50;99.90;;;1.17;81.83;100857.47;10389669;28;96669;-77
2021/12/13 08:31:51;;;;;;;44.63;19.03;;;2.90;99.90;;;1.45;79.83;100854.03;10380573;28;96637;-77
2021/12/13 08:36:54;;;;;;;40.63;20.70;;;3.20;99.90;;;1.79;77.81;100858.84;10381581;28;96606;-78
2021/12/13 08:42:11;;;;;;;62.53;33.87;;;3.50;99.90;;;2.23;77.70;100851.75;10412137;28;99467;-78
2021/12/13 08:47:20;;;;;;;50.87;21.97;;;3.90;99.90;;;2.33;75.47;100853.66;10387600;28;96545;-78
2021/12/13 08:52:34;;;;;;;34.93;18.50;;;4.20;99.90;;;1.91;75.49;100856.41;10387016;28;96563;-78
2021/12/13 08:58:03;;;;;;;26.90;14.43;;;4.10;99.90;;;1.44;76.58;100862.78;10392972;28;97024;-78
2021/12/13 09:03:50;;;;;;;19.63;9.30;;;3.90;99.90;;;1.04;77.24;100858.19;10399717;28;96607;-78
2021/12/13 09:09:15;;;;;;;23.00;11.90;;;3.60;99.90;;;1.33;77.63;100851.22;10394552;28;96536;-78
2021/12/13 09:14:36;;;;;;;26.63;14.07;;;3.60;99.90;;;1.70;77.06;100856.81;10390099;28;97180;-78
2021/12/13 09:19:50;;;;;;;23.70;12.30;;;3.80;99.90;;;1.73;76.86;100861.84;10410292;28;96576;-78
2021/12/13 09:25:30;;;;;;;26.93;14.00;;;3.90;99.90;;;1.58;76.80;100849.72;10401499;28;96636;-83
2021/12/13 09:30:56;;;;;;;34.23;16.50;;;3.90;99.90;;;1.38;76.59;100842.22;10418634;27;97065;-81
2021/12/13 09:36:41;;;;;;;54.80;25.97;;;3.70;99.90;;;1.11;76.88;100845.56;10410065;28;96597;-81
2021/12/13 09:42:22;;;;;;;40.90;20.67;;;3.60;99.90;;;0.96;77.40;100843.84;10273898;28;96724;-80
2021/12/13 09:47:37;;;;;;;38.43;18.50;;;3.40;99.90;;;0.85;78.23;100843.69;10382418;28;96527;-80
2021/12/13 09:52:59;;;;;;;30.93;16.27;;;3.30;99.90;;;0.82;78.55;100836.84;10391453;27;96635;-80
2021/12/13 09:58:13;;;;;;;29.47;15.47;;;3.20;99.90;;;0.82;79.19;100834.22;10387376;28;96650;-82
2021/12/13 10:03:53;;;;;;;36.67;18.93;;;3.20;99.90;;;0.87;79.15;100823.47;10393474;28;96543;-80
2021/12/13 10:09:13;;;;;;;35.73;17.73;;;3.20;99.90;;;0.90;79.53;100825.91;10370443;28;96734;-80
2021/12/13 10:14:21;;;;;;;31.40;15.67;;;3.20;99.90;;;0.97;79.72;100827.25;10415813;27;96523;-80
2021/12/13 10:19:43;;;;;;;30.20;15.33;;;3.30;99.90;;;1.05;79.85;100815.38;10380740;28;96534;-80
2021/12/13 10:24:55;;;;;;;31.63;16.20;;;3.30;99.90;;;1.13;79.50;100822.75;10355652;28;96660;-80
2021/12/13 10:30:32;;;;;;;;;;;3.40;99.90;;;1.19;79.78;100822.38;10341651;28;96758;-78
2021/12/13 10:35:40;;;;;;;33.10;16.13;;;3.40;99.90;;;1.32;80.00;100812.88;10335872;28;96727;-78
2021/12/13 10:41:04;;;;;;;26.20;13.17;;;3.50;99.90;;;1.45;79.39;100812.13;10335329;28;97981;-78
2021/12/13 10:46:20;;;;;;;27.63;14.37;;;3.70;99.90;;;1.64;79.32;100807.41;10343353;28;96926;-77
2021/12/13 10:51:30;;;;;;;30.33;12.10;;;3.80;99.90;;;2.15;78.85;100792.75;10339519;28;96824;-78
2021/12/13 10:56:43;;;;;;;26.17;13.43;;;4.20;99.90;;;2.32;77.64;100794.28;10325793;28;96530;-78
2021/12/13 11:01:52;;;;;;;16.10;8.60;;;4.40;99.90;;;2.50;75.65;100794.88;10345416;28;96585;-78
2021/12/13 11:06:56;;;;;;;17.03;8.03;;;4.60;99.90;;;2.58;74.47;100794.34;10331918;28;98211;-80
2021/12/13 11:12:09;;;;;;;16.70;8.10;;;4.80;99.90;;;2.61;73.71;100788.91;10332644;28;96786;-79
2021/12/13 11:17:21;;;;;;;15.90;7.93;;;4.80;99.90;;;2.63;72.37;100779.97;10349442;28;98412;-78
2021/12/13 11:22:30;;;;;;;13.63;7.10;;;4.80;99.90;;;2.66;71.84;100784.19;10338545;28;96844;-78
2021/12/13 11:27:35;;;;;;;13.70;7.23;;;4.80;99.90;;;2.64;71.79;100789.56;10360751;28;96731;-81
2021/12/13 11:33:10;;;;;;;13.53;7.17;;;4.80;99.90;;;2.67;71.93;100793.75;10373093;27;98370;-79
2021/12/13 11:38:28;;;;;;;12.63;7.10;;;4.80;99.90;;;2.73;72.08;100780.22;10409546;28;96675;-81
2021/12/13 11:44:01;;;;;;;16.83;8.37;;;4.90;99.90;;;2.81;72.10;100777.91;10415336;28;96561;-79
2021/12/13 11:49:19;;;;;;;14.13;7.23;;;4.90;99.90;;;2.91;71.50;100784.22;10363615;28;98562;-79
2021/12/13 11:55:18;;;;;;;13.73;7.37;;;5.00;99.90;;;3.00;70.87;100782.75;10365536;28;96597;-80
2021/12/13 12:00:43;;;;;;;15.13;7.83;;;5.10;99.90;;;3.03;71.34;100785.16;10393379;28;98440;-79
2021/12/13 12:06:55;;;;;;;17.43;9.07;;;5.10;99.90;;;3.07;70.81;100775.31;10391885;28;96600;-80
2021/12/13 12:12:44;;;;;;;37.17;14.20;;;5.20;99.90;;;3.10;70.77;100780.31;10224775;28;97634;-79
2021/12/13 12:17:49;;;;;;;45.93;15.20;;;5.10;99.90;;;3.09;70.84;100779.47;10385910;28;96635;-80
2021/12/13 12:23:04;;;;;;;29.77;13.30;;;5.10;99.90;;;3.11;71.00;100782.84;10359068;28;97982;-79
2021/12/13 12:28:18;;;;;;;39.20;19.07;;;5.10;99.90;;;3.12;71.69;100778.41;10358416;28;96553;-79
2021/12/13 12:33:32;;;;;;;20.90;11.90;;;5.10;99.90;;;3.14;71.62;100787.91;10371464;28;98329;-79
2021/12/13 12:38:35;;;;;;;21.33;11.10;;;5.10;99.90;;;3.14;71.56;100776.56;10357727;28;96520;-79
2021/12/13 12:43:52;;;;;;;18.60;8.53;;;5.20;99.90;;;3.14;71.37;100782.63;10376912;28;97000;-79
2021/12/13 12:48:59;;;;;;;18.37;8.83;;;5.20;99.90;;;3.13;71.63;100777.50;10389539;28;96899;-80
2021/12/13 12:54:06;;;;;;;15.73;8.30;;;5.20;99.90;;;3.10;71.15;100781.16;10365989;28;96813;-81
2021/12/13 12:59:21;;;;;;;16.97;8.97;;;5.10;99.90;;;3.06;70.78;100774.47;10380455;28;96608;-79
2021/12/13 13:04:38;;;;;;;14.43;8.10;;;5.10;99.90;;;3.02;71.10;100774.78;10390580;28;96992;-80
2021/12/13 13:09:55;;;;;;;18.00;8.73;;;5.10;99.90;;;2.97;71.23;100769.00;10398264;28;96555;-80
2021/12/13 13:15:14;;;;;;;17.57;8.00;;;5.00;99.90;;;2.93;71.00;100784.94;10399380;28;96576;-80
2021/12/13 13:20:38;;;;;;;18.63;8.70;;;5.00;99.90;;;2.90;71.27;100789.56;10381118;28;96496;-80
2021/12/13 13:25:56;;;;;;;16.57;8.97;;;5.00;99.90;;;2.91;70.82;100786.00;10365080;28;96709;-80
2021/12/13 13:31:23;;;;;;;23.50;10.80;;;5.00;99.90;;;2.85;70.48;100799.53;10396183;28;98107;-77
2021/12/13 13:36:47;;;;;;;22.53;10.40;;;5.00;99.90;;;2.75;71.58;100801.94;10394748;28;96669;-78
2021/12/13 13:42:04;;;;;;;30.90;14.17;;;4.80;99.90;;;2.62;71.61;100817.66;10375495;28;96681;-80
2021/12/13 13:47:31;;;;;;;22.47;10.67;;;4.80;99.90;;;2.44;71.90;100818.88;10386153;28;98807;-78
2021/12/13 13:52:44;;;;;;;23.17;12.07;;;4.60;99.90;;;2.29;72.53;100812.88;10390150;28;96607;-78
2021/12/13 13:57:59;;;;;;;26.90;13.00;;;4.50;99.90;;;2.12;72.58;100816.56;10397414;28;96534;-79
2021/12/13 14:03:04;;;;;;;22.17;11.90;;;4.30;99.90;;;1.97;72.59;100814.91;10394054;28;97017;-78
2021/12/13 14:08:27;;;;;;;30.47;12.60;;;4.10;99.90;;;1.81;72.66;100820.31;10365111;28;96511;-78
2021/12/13 14:13:38;;;;;;;26.07;13.33;;;4.00;99.90;;;1.66;72.87;100821.25;10356747;28;98330;-78
2021/12/13 14:18:43;;;;;;;25.13;15.30;;;3.90;99.90;;;1.53;73.30;100825.56;10381456;28;96819;-78
2021/12/13 14:23:49;;;;;;;16.50;8.40;;;3.70;99.90;;;1.40;73.45;100824.66;10364988;28;97053;-78
2021/12/13 14:29:02;;;;;;;22.23;11.40;;;3.60;99.90;;;1.25;73.66;100826.41;10367361;28;97416;-78
2021/12/13 14:34:24;;;;;;;19.90;11.27;;;3.50;99.90;;;1.08;74.29;100832.69;10374612;28;96674;-78
2021/12/13 14:39:51;;;;;;;21.40;12.25;;;3.30;99.90;;;0.93;75.22;100844.06;10319307;28;97672;-78
2021/12/13 14:45:06;;;;;;;19.43;8.70;;;3.20;99.90;;;0.86;75.78;100835.72;10323548;28;96537;-78
2021/12/13 14:50:21;;;;;;;18.17;8.63;;;3.10;99.90;;;0.78;76.08;100841.41;10322281;28;99314;-78
2021/12/13 14:55:37;;;;;;;24.63;10.90;;;3.00;99.90;;;0.65;77.02;100844.81;10327192;28;96670;-78
2021/12/13 15:00:49;;;;;;;25.47;11.00;;;2.90;99.90;;;0.54;77.75;100863.75;10308525;28;97291;-78
2021/12/13 15:06:09;;;;;;;23.73;14.10;;;2.70;99.90;;;0.47;78.23;100872.84;10347934;28;96603;-78
2021/12/13 15:11:28;;;;;;;26.00;13.50;;;2.70;99.90;;;0.34;78.77;100872.72;10373389;28;96690;-78
2021/12/13 15:16:37;;;;;;;32.13;15.83;;;2.60;99.90;;;0.21;79.40;100879.56;10336606;28;96621;-78
2021/12/13 15:21:49;;;;;;;30.73;13.27;;;2.50;99.90;;;0.09;80.12;100881.06;10342733;28;97762;-78
2021/12/13 15:27:04;;;;;;;27.67;13.17;;;2.30;99.90;;;0.00;80.64;100894.66;10376101;27;96730;-78
2021/12/13 15:32:14;;;;;;;25.50;12.60;;;2.30;99.90;;;-0.15;81.16;100908.53;10377358;28;96683;-78
2021/12/13 15:37:42;;;;;;;26.27;12.60;;;2.20;99.90;;;-0.30;81.49;100903.22;10377822;28;97532;-79
2021/12/13 15:42:55;;;;;;;24.03;11.50;;;2.00;99.90;;;-0.44;82.00;100902.25;10360282;28;96631;-78
2021/12/13 15:53:42;;;;;;;42.13;15.20;;;1.70;99.90;;;-0.75;82.77;100906.44;10416675;28;98596;-78
2021/12/13 15:58:50;;;;;;;44.80;16.37;;;1.60;99.90;;;-0.90;83.22;100915.91;10397254;28;96947;-78
2021/12/13 16:03:57;;;;;;;46.33;16.73;;;1.50;99.90;;;-1.08;83.67;100917.66;10358272;28;96499;-78
2021/12/13 16:09:15;;;;;;;47.30;16.90;;;1.40;99.90;;;-1.23;84.33;100914.97;10376499;28;96779;-78
2021/12/13 16:14:43;;;;;;;34.60;16.17;;;1.20;99.90;;;-1.40;84.66;100916.63;10363017;27;97098;-78
2021/12/13 16:20:13;;;;;;;53.67;22.80;;;1.10;99.90;;;-1.55;85.14;100921.75;10407251;27;96815;-78
2021/12/13 16:25:46;;;;;;;79.17;40.27;;;0.90;99.90;;;-1.68;85.90;100929.25;10401542;28;96668;-78
2021/12/13 16:31:07;;;;;;;90.47;42.33;;;0.80;99.90;;;-1.77;86.55;100938.38;10406793;28;96482;-78
2021/12/13 16:36:20;;;;;;;71.03;33.03;;;0.70;99.90;;;-1.86;86.76;100944.00;10398103;28;97110;-77
2021/12/13 16:41:26;;;;;;;54.07;27.60;;;0.60;99.90;;;-1.99;86.86;100938.50;10409818;28;96591;-78
2021/12/13 16:46:30;;;;;;;49.13;25.23;;;0.40;99.90;;;-2.08;87.73;100949.34;10391006;28;97018;-77
2021/12/13 16:51:46;;;;;;;51.53;23.93;;;0.40;99.90;;;-2.13;87.77;100951.31;10392596;28;96801;-77
2021/12/13 16:56:55;;;;;;;44.93;22.27;;;0.30;99.90;;;-2.24;88.08;100953.53;10387767;28;96648;-77
2021/12/13 17:01:59;;;;;;;83.90;33.70;;;0.20;99.90;;;-2.36;88.35;100960.13;10404286;28;98115;-78
2021/12/13 17:07:10;;;;;;;52.80;22.60;;;0.10;99.90;;;-2.47;88.59;100955.41;10372277;28;98040;-78
2021/12/13 17:12:13;;;;;;;41.53;22.07;;;0.00;99.90;;;-2.58;88.99;100961.97;10406065;28;97679;-77
2021/12/13 17:17:18;;;;;;;47.30;21.87;;;-0.10;99.90;;;-2.65;89.20;100961.38;10377077;28;96575;-78
2021/12/13 17:22:22;;;;;;;54.70;25.07;;;-0.20;99.90;;;-2.72;89.66;100960.81;10363626;28;97102;-77
2021/12/13 17:27:32;;;;;;;84.00;28.87;;;-0.30;99.90;;;-2.72;90.26;100962.56;10397945;28;96614;-77
2021/12/13 17:32:44;;;;;;;67.27;30.83;;;-0.30;99.90;;;-2.67;90.75;100971.03;10389005;28;96555;-76
2021/12/13 17:37:53;;;;;;;121.93;41.03;;;-0.30;99.90;;;-2.70;90.72;100982.41;10365741;28;96545;-76
2021/12/13 17:43:07;;;;;;;95.10;35.97;;;-0.30;99.90;;;-2.75;90.90;100983.53;10362488;28;96667;-76
2021/12/13 17:48:22;;;;;;;150.07;47.90;;;-0.30;99.90;;;-2.82;91.11;100984.66;10362721;28;96715;-77
2021/12/13 17:53:51;;;;;;;260.07;61.77;;;-0.40;99.90;;;-2.89;91.46;100991.03;10383051;28;96689;-76
2021/12/13 17:59:21;;;;;;;116.80;42.43;;;-0.50;99.90;;;-2.90;91.73;100989.34;10383377;28;96781;-77
2021/12/13 18:04:31;;;;;;;239.80;57.03;;;-0.50;99.90;;;-2.94;91.81;100986.00;10364070;28;98309;-77
2021/12/13 18:09:45;;;;;;;140.87;40.13;;;-0.50;99.90;;;-2.96;92.25;100990.44;10370411;28;96513;-76
2021/12/13 18:14:55;;;;;;;75.07;31.03;;;-0.60;99.90;;;-3.02;92.25;100996.72;10413697;28;96555;-77
2021/12/13 18:20:10;;;;;;;47.53;21.27;;;-0.60;99.90;;;-3.10;92.64;100993.59;10380233;28;96584;-76
2021/12/13 18:25:20;;;;;;;81.73;25.73;;;-0.70;99.90;;;-3.17;92.65;100997.38;10384960;28;96693;-77
2021/12/13 18:30:46;;;;;;;96.03;30.50;;;-0.70;99.90;;;-3.18;93.08;101000.84;10407871;28;96696;-76
2021/12/13 18:36:06;;;;;;;117.20;32.27;;;-0.80;99.90;;;-3.20;92.95;101005.25;10377039;28;96587;-77
2021/12/13 18:41:36;;;;;;;107.43;36.47;;;-0.80;99.90;;;-3.24;93.30;100993.28;10353138;28;96591;-76
2021/12/13 18:46:49;;;;;;;66.17;28.90;;;-0.80;99.90;;;-3.30;93.63;101009.13;10360905;28;96511;-76
2021/12/13 18:51:55;;;;;;;165.87;51.50;;;-0.90;99.90;;;-3.35;93.55;101022.31;10371117;28;96505;-75
2021/12/13 18:57:21;;;;;;;115.00;36.43;;;-0.90;99.90;;;-3.33;93.76;101022.25;10361107;28;96851;-76
2021/12/13 19:02:48;;;;;;;113.43;37.37;;;-0.90;99.90;;;-3.32;94.12;101024.78;10366884;28;96627;-76
2021/12/13 19:08:01;;;;;;;59.20;22.83;;;-0.90;99.90;;;-3.33;94.19;101027.47;10362884;28;96708;-76
2021/12/13 19:13:57;;;;;;;38.23;17.27;;;-1.00;99.90;;;-3.33;94.62;101023.09;10399204;28;96569;-76
2021/12/13 19:19:11;;;;;;;66.70;26.23;;;-0.90;99.90;;;-3.22;95.01;101024.44;10368342;28;97458;-76
2021/12/13 19:24:25;;;;;;;107.73;31.13;;;-0.90;99.90;;;-3.21;95.00;101041.72;10361746;28;96533;-76
2021/12/13 19:29:35;;;;;;;62.60;22.53;;;-0.90;99.90;;;-3.21;95.05;101039.13;10357777;28;96638;-75
2021/12/13 19:34:49;;;;;;;75.80;29.50;;;-0.90;99.90;;;-3.20;95.31;101049.47;10369669;28;97261;-78
2021/12/13 19:40:10;;;;;;;67.03;26.20;;;-0.90;99.90;;;-3.26;95.27;101062.69;10377008;28;98372;-78
2021/12/13 19:45:52;;;;;;;77.97;31.10;;;-0.90;99.90;;;-3.36;95.33;101061.34;10354832;28;98387;-76
2021/12/13 19:51:14;;;;;;;92.37;36.60;;;-1.00;99.90;;;-3.47;95.21;101064.38;10378464;28;96706;-76
2021/12/13 19:56:23;;;;;;;76.80;32.90;;;-1.00;99.90;;;-3.61;95.47;101064.03;10367022;28;97894;-76
2021/12/13 20:01:36;;;;;;;55.75;24.15;;;-1.10;99.90;;;-3.72;95.46;101072.19;10375583;28;97188;-79
2021/12/13 20:06:44;;;;;;;55.67;28.60;;;-1.20;99.90;;;-3.81;95.64;101068.19;10397684;28;96597;-79
2021/12/13 20:11:54;;;;;;;67.00;30.40;;;-1.30;99.90;;;-3.87;95.59;101058.03;10378248;28;96501;-79
2021/12/13 20:17:15;;;;;;;74.20;33.27;;;-1.40;99.90;;;-3.94;95.68;101060.91;10403469;28;98078;-78
2021/12/13 20:22:25;;;;;;;51.10;21.13;;;-1.50;99.90;;;-3.65;96.68;101058.09;10378987;28;96728;-79
2021/12/13 20:27:49;;;;;;;67.37;29.40;;;-1.50;99.90;;;-3.26;97.57;101055.75;10393239;28;97872;-79
2021/12/13 20:33:50;;;;;;;86.57;29.87;;;-1.30;99.90;;;-3.05;97.69;101051.47;10369479;28;97449;-78
2021/12/13 20:39:06;;;;;;;78.20;28.27;;;-1.20;99.90;;;-2.93;97.94;101049.31;10273051;28;96989;-78
2021/12/13 20:44:49;;;;;;;62.63;27.47;;;-1.10;99.90;;;-2.91;97.70;101048.31;10365174;28;96607;-77
2021/12/13 20:49:54;;;;;;;;;;;-1.00;99.90;;;-2.93;97.71;101044.09;10375211;28;97439;-78
2021/12/13 20:55:11;;;;;;;47.83;21.07;;;-1.00;99.90;;;-2.97;97.47;101046.81;10349572;28;97859;-78
2021/12/13 21:00:24;;;;;;;70.37;26.73;;;-1.00;99.90;;;-2.97;97.70;101048.56;10380260;28;98571;-78
2021/12/13 21:05:38;;;;;;;67.17;28.60;;;-1.00;99.90;;;-2.96;97.63;101047.66;10380745;28;96813;-77
2021/12/13 21:11:17;;;;;;;83.70;35.20;;;-1.00;99.90;;;-2.96;97.50;101051.09;10374712;28;96490;-78
2021/12/13 21:16:39;;;;;;;78.27;34.60;;;-1.00;99.90;;;-2.98;97.29;101055.53;10346083;28;97939;-78
2021/12/13 21:21:49;;;;;;;;;;;-1.00;99.90;;;-3.03;97.13;101056.59;10367224;28;96681;-78
2021/12/13 21:27:14;;;;;;;76.47;33.60;;;-1.00;99.90;;;-3.08;97.05;101074.97;10364863;28;97193;-78
2021/12/13 21:32:26;;;;;;;73.87;32.30;;;-1.00;99.90;;;-3.18;96.88;101072.78;10362867;28;96525;-78
2021/12/13 21:43:00;;;;;;;51.37;23.07;;;-1.20;99.90;;;-3.29;96.63;101074.06;10377956;28;97394;-77
2021/12/13 21:48:13;;;;;;;76.17;27.07;;;-1.20;99.90;;;-3.31;96.85;101068.06;10378338;28;96645;-78
2021/12/13 21:53:26;;;;;;;56.67;21.93;;;-1.20;99.90;;;-3.33;96.78;101079.44;10352812;28;96570;-78